Terminal Aerodrome Forecast
Issued by NWS Grand Forks, ND

Home | Current Version | Previous Version | Text Only | Print | Product List | Glossary Off
Versions: 1 2 3 4 5 6 7 8 9 10 11 12 13 14 15 16 17

000
FTUS43 KFGF 240500
TAFGFK
TAF
KGFK 240528Z 2406/2506 32010KT P6SM BKN013
     FM241200 VRB06KT P6SM OVC013
     FM241800 19009KT P6SM OVC016
     FM242100 18012KT P6SM BKN050=

USA.gov is the U.S. government's official web portal to all federal, state and local government web resources and services.